createdAt,value
2023-05-12T00:00:44.801Z,85.48
2023-05-12T00:01:44.372Z,85.51
2023-05-12T00:02:44.574Z,83.29
2023-05-12T00:03:44.694Z,85.70
2023-05-12T00:04:44.626Z,82.10
2023-05-12T00:05:44.803Z,82.79
2023-05-12T00:06:44.677Z,82.86
2023-05-12T00:07:44.769Z,76.65
2023-05-12T00:08:44.842Z,80.86
2023-05-12T00:09:44.897Z,85.68
2023-05-12T00:10:45.344Z,83.55
2023-05-12T00:11:44.999Z,84.94
2023-05-12T00:12:45.075Z,92.70
2023-05-12T00:13:45.210Z,77.68
2023-05-12T00:14:45.194Z,84.15
2023-05-12T00:15:45.315Z,85.32
2023-05-12T00:16:45.320Z,81.13
2023-05-12T00:17:45.448Z,90.64
2023-05-12T00:18:45.423Z,83.12
2023-05-12T00:19:45.434Z,77.23
2023-05-12T00:20:45.809Z,78.39
2023-05-12T00:21:45.576Z,76.94
2023-05-12T00:22:45.656Z,79.08
2023-05-12T00:23:45.697Z,80.28
2023-05-12T00:24:45.752Z,83.42
2023-05-12T00:25:45.820Z,85.48
2023-05-12T00:26:45.864Z,80.34
2023-05-12T00:27:45.932Z,89.99
2023-05-12T00:28:45.952Z,80.18
2023-05-12T00:29:46.055Z,80.95
2023-05-12T00:30:46.101Z,81.01
2023-05-12T00:31:46.195Z,87.41
2023-05-12T00:32:46.340Z,83.51
2023-05-12T00:33:46.286Z,82.83
2023-05-12T00:34:46.332Z,89.47
2023-05-12T00:35:46.810Z,83.36
2023-05-12T00:36:46.456Z,82.04
2023-05-12T00:37:46.537Z,83.33
2023-05-12T00:38:46.608Z,87.41
2023-05-12T00:39:46.638Z,79.51
2023-05-12T00:40:46.805Z,79.75
2023-05-12T00:41:46.764Z,83.36
2023-05-12T00:42:46.791Z,85.47
2023-05-12T00:43:46.842Z,87.89
2023-05-12T00:44:46.862Z,84.17
2023-05-12T00:45:47.346Z,84.16
2023-05-12T00:46:46.953Z,87.21
2023-05-12T00:47:47.093Z,79.27
2023-05-12T00:48:47.107Z,79.64
2023-05-12T00:49:47.160Z,86.37
2023-05-12T00:50:47.197Z,81.62
2023-05-12T00:51:47.251Z,81.65
2023-05-12T00:52:48.837Z,76.83
2023-05-12T00:53:49.828Z,84.04
2023-05-12T00:54:47.332Z,86.81
2023-05-12T00:55:47.873Z,81.07
2023-05-12T00:56:47.338Z,88.45
2023-05-12T00:57:47.347Z,77.22
2023-05-12T00:58:47.381Z,82.01
2023-05-12T00:59:47.318Z,76.08
2023-05-12T01:00:47.382Z,78.80
2023-05-12T01:01:47.302Z,85.45
2023-05-12T01:02:47.465Z,78.40
2023-05-12T01:03:47.314Z,82.73
2023-05-12T01:04:47.292Z,77.84
2023-05-12T01:05:47.253Z,86.48
2023-05-12T01:06:47.259Z,83.52
2023-05-12T01:07:47.306Z,78.96
2023-05-12T01:08:47.237Z,79.19
2023-05-12T01:09:47.253Z,77.55
2023-05-12T01:10:47.330Z,83.40
2023-05-12T01:11:47.241Z,83.03
2023-05-12T01:12:47.236Z,77.54
2023-05-12T01:13:47.226Z,79.90
2023-05-12T01:14:47.195Z,74.76
2023-05-12T01:15:47.333Z,79.29
2023-05-12T01:16:47.210Z,78.00
2023-05-12T01:17:47.213Z,80.05
2023-05-12T01:18:47.289Z,83.37
2023-05-12T01:19:47.148Z,78.66
2023-05-12T01:20:47.138Z,81.63
2023-05-12T01:21:47.154Z,79.98
2023-05-12T01:22:47.181Z,79.63
2023-05-12T01:23:47.137Z,83.01
2023-05-12T01:24:47.121Z,85.25
2023-05-12T01:25:47.325Z,78.30
2023-05-12T01:26:47.108Z,79.32
2023-05-12T01:27:47.121Z,73.68
2023-05-12T01:28:47.111Z,80.19
2023-05-12T01:29:47.094Z,81.51
2023-05-12T01:30:47.415Z,78.14
2023-05-12T01:31:47.135Z,79.75
2023-05-12T01:32:47.104Z,73.81
2023-05-12T01:33:47.073Z,81.39
2023-05-12T01:34:47.080Z,76.09
2023-05-12T01:35:47.364Z,78.57
2023-05-12T01:36:47.055Z,83.03
2023-05-12T01:37:47.027Z,77.65
2023-05-12T01:38:47.040Z,81.05
2023-05-12T01:39:47.020Z,76.88
2023-05-12T01:40:47.019Z,72.55
2023-05-12T01:41:46.982Z,81.77
2023-05-12T01:42:46.995Z,80.25
2023-05-12T01:43:47.005Z,80.59
2023-05-12T01:44:47.002Z,84.64
2023-05-12T01:45:46.974Z,75.79
2023-05-12T01:46:47.110Z,79.13
2023-05-12T01:47:47.026Z,77.73
2023-05-12T01:48:46.943Z,82.87
2023-05-12T01:49:46.969Z,78.65
2023-05-12T01:50:46.951Z,79.81
2023-05-12T01:51:46.973Z,81.84
2023-05-12T01:52:46.968Z,82.11
2023-05-12T01:53:46.969Z,90.31
2023-05-12T01:54:46.919Z,83.96
2023-05-12T01:55:46.911Z,76.21
2023-05-12T01:56:46.913Z,78.43
2023-05-12T01:57:46.931Z,79.48
2023-05-12T01:58:46.925Z,85.09
2023-05-12T01:59:46.905Z,73.87
2023-05-12T02:00:46.888Z,74.90
2023-05-12T02:01:46.976Z,80.75
2023-05-12T02:02:46.968Z,75.59
2023-05-12T02:03:46.928Z,82.09
2023-05-12T02:04:46.869Z,74.30
2023-05-12T02:05:46.914Z,77.74
2023-05-12T02:06:46.875Z,77.20
2023-05-12T02:07:46.860Z,72.42
2023-05-12T02:08:46.855Z,83.17
2023-05-12T02:09:46.841Z,82.05
2023-05-12T02:10:46.856Z,75.74
2023-05-12T02:11:46.839Z,83.06
2023-05-12T02:12:46.844Z,81.98
2023-05-12T02:13:46.829Z,80.44
2023-05-12T02:14:46.824Z,75.37
2023-05-12T02:15:46.856Z,79.07
2023-05-12T02:16:46.973Z,74.91
2023-05-12T02:17:46.854Z,77.44
2023-05-12T02:18:46.884Z,80.78
2023-05-12T02:19:46.823Z,78.32
2023-05-12T02:20:46.828Z,79.14
2023-05-12T02:21:46.832Z,73.89
2023-05-12T02:22:46.831Z,79.91
2023-05-12T02:23:46.834Z,73.32
2023-05-12T02:24:46.768Z,77.10
2023-05-12T02:25:46.777Z,79.97
2023-05-12T02:26:46.788Z,78.61
2023-05-12T02:27:46.805Z,85.29
2023-05-12T02:28:46.754Z,82.19
2023-05-12T02:29:47.393Z,78.07
2023-05-12T02:30:47.394Z,78.58
2023-05-12T02:31:46.791Z,76.40
2023-05-12T02:32:46.749Z,78.43
2023-05-12T02:33:46.738Z,73.84
2023-05-12T02:34:46.728Z,77.96
2023-05-12T02:35:46.710Z,76.65
2023-05-12T02:36:46.755Z,76.83
2023-05-12T02:37:46.721Z,75.55
2023-05-12T02:38:46.720Z,82.19
2023-05-12T02:39:46.692Z,76.30
2023-05-12T02:40:47.404Z,83.19
2023-05-12T02:41:46.728Z,80.19
2023-05-12T02:42:46.718Z,78.07
2023-05-12T02:43:46.716Z,73.26
2023-05-12T02:44:46.699Z,79.14
2023-05-12T02:45:46.740Z,74.13
2023-05-12T02:46:46.682Z,74.46
2023-05-12T02:47:46.755Z,76.93
2023-05-12T02:48:46.698Z,78.22
2023-05-12T02:49:46.674Z,81.21
2023-05-12T02:50:46.688Z,77.64
2023-05-12T02:51:46.893Z,75.60
2023-05-12T02:52:46.692Z,72.89
2023-05-12T02:53:46.703Z,76.72
2023-05-12T02:54:46.673Z,75.75
2023-05-12T02:55:46.682Z,71.57
2023-05-12T02:56:46.692Z,79.72
2023-05-12T02:57:46.677Z,81.64
2023-05-12T02:58:46.675Z,71.68
2023-05-12T02:59:46.688Z,84.02
2023-05-12T03:00:48.660Z,79.73
2023-05-12T03:01:47.772Z,79.79
2023-05-12T03:02:46.792Z,78.93
2023-05-12T03:03:46.973Z,80.55
2023-05-12T03:04:46.653Z,79.48
2023-05-12T03:05:46.655Z,78.08
2023-05-12T03:06:46.889Z,79.84
2023-05-12T03:07:46.655Z,83.64
2023-05-12T03:08:46.666Z,77.31
2023-05-12T03:09:46.650Z,72.40
2023-05-12T03:10:46.650Z,80.66
2023-05-12T03:11:46.897Z,76.66
2023-05-12T03:12:46.648Z,77.90
2023-05-12T03:13:46.608Z,80.68
2023-05-12T03:14:46.613Z,83.09
2023-05-12T03:15:46.618Z,77.69
2023-05-12T03:16:46.996Z,73.34
2023-05-12T03:17:46.696Z,77.45
2023-05-12T03:18:46.697Z,75.92
2023-05-12T03:19:46.694Z,73.18
2023-05-12T03:20:46.733Z,77.76
2023-05-12T03:21:46.938Z,82.27
2023-05-12T03:22:46.745Z,75.45
2023-05-12T03:23:46.769Z,79.78
2023-05-12T03:24:46.811Z,79.13
2023-05-12T03:25:46.777Z,72.58
2023-05-12T03:26:46.918Z,77.53
2023-05-12T03:27:46.793Z,72.43
2023-05-12T03:28:46.822Z,75.65
2023-05-12T03:29:46.854Z,77.09
2023-05-12T03:30:46.893Z,78.00
2023-05-12T03:31:46.996Z,76.91
2023-05-12T03:32:46.957Z,79.31
2023-05-12T03:33:46.909Z,81.26
2023-05-12T03:34:46.917Z,77.54
2023-05-12T03:35:46.948Z,72.73
2023-05-12T03:36:46.927Z,79.44
2023-05-12T03:37:46.980Z,79.96
2023-05-12T03:38:46.965Z,81.23
2023-05-12T03:39:47.011Z,78.82
2023-05-12T03:40:46.986Z,70.55
2023-05-12T03:41:47.427Z,78.02
2023-05-12T03:42:47.008Z,76.70
2023-05-12T03:43:46.989Z,75.39
2023-05-12T03:44:46.984Z,82.91
2023-05-12T03:45:46.972Z,76.58
2023-05-12T03:46:47.086Z,72.54
2023-05-12T03:47:47.065Z,76.05
2023-05-12T03:48:46.973Z,76.39
2023-05-12T03:49:46.941Z,79.16
2023-05-12T03:50:46.959Z,77.67
2023-05-12T03:51:46.970Z,78.94
2023-05-12T03:52:46.974Z,77.80
2023-05-12T03:53:46.984Z,76.48
2023-05-12T03:54:47.013Z,77.77
2023-05-12T03:55:47.024Z,74.76
2023-05-12T03:56:47.070Z,74.43
2023-05-12T03:57:47.070Z,72.86
2023-05-12T03:58:47.064Z,78.98
2023-05-12T03:59:47.050Z,83.54
2023-05-12T04:00:47.044Z,76.16
2023-05-12T04:01:47.071Z,74.21
2023-05-12T04:02:47.059Z,80.65
2023-05-12T04:03:47.101Z,74.44
2023-05-12T04:04:46.999Z,78.50
2023-05-12T04:05:46.984Z,75.15
2023-05-12T04:06:47.024Z,77.22
2023-05-12T04:07:47.003Z,82.78
2023-05-12T04:08:46.982Z,74.95
2023-05-12T04:09:47.002Z,79.08
2023-05-12T04:10:47.004Z,76.69
2023-05-12T04:11:46.967Z,74.58
2023-05-12T04:12:46.981Z,77.95
2023-05-12T04:13:46.980Z,74.32
2023-05-12T04:14:46.960Z,77.40
2023-05-12T04:15:46.968Z,74.90
2023-05-12T04:16:47.008Z,77.64
2023-05-12T04:17:46.974Z,76.65
2023-05-12T04:18:46.994Z,84.44
2023-05-12T04:19:46.959Z,76.13
2023-05-12T04:20:46.952Z,79.07
2023-05-12T04:21:46.968Z,70.46
2023-05-12T04:22:46.898Z,75.15
2023-05-12T04:23:46.917Z,77.99
2023-05-12T04:24:46.918Z,70.36
2023-05-12T04:25:46.921Z,73.49
2023-05-12T04:26:46.947Z,76.77
2023-05-12T04:27:46.934Z,74.84
2023-05-12T04:28:46.897Z,80.40
2023-05-12T04:29:46.889Z,77.60
2023-05-12T04:30:46.908Z,74.47
2023-05-12T04:31:47.017Z,79.67
2023-05-12T04:32:46.990Z,75.55
2023-05-12T04:33:48.315Z,70.72
2023-05-12T04:34:46.895Z,77.42
2023-05-12T04:35:46.948Z,72.99
2023-05-12T04:36:46.926Z,82.31
2023-05-12T04:37:46.902Z,78.54
2023-05-12T04:38:46.923Z,81.28
2023-05-12T04:39:46.882Z,78.96
2023-05-12T04:40:46.910Z,75.62
2023-05-12T04:41:46.943Z,74.17
2023-05-12T04:42:46.888Z,76.72
2023-05-12T04:44:46.890Z,76.50
2023-05-12T04:45:46.895Z,74.08
2023-05-12T04:46:46.970Z,75.03
2023-05-12T04:47:46.904Z,74.37
2023-05-12T04:48:46.854Z,74.75
2023-05-12T04:49:46.827Z,81.69
2023-05-12T04:50:46.834Z,80.33
2023-05-12T04:51:46.846Z,75.32
2023-05-12T04:52:46.817Z,78.12
2023-05-12T04:53:46.857Z,81.08
2023-05-12T04:54:46.778Z,81.92
2023-05-12T04:55:46.834Z,77.27
2023-05-12T04:56:47.008Z,79.83
2023-05-12T04:57:46.782Z,79.21
2023-05-12T04:58:46.762Z,86.85
2023-05-12T04:59:46.749Z,88.19
2023-05-12T05:00:46.756Z,85.89
2023-05-12T05:01:47.172Z,83.34
2023-05-12T05:02:46.810Z,85.09
2023-05-12T05:03:46.776Z,86.70
2023-05-12T05:04:46.726Z,89.59
2023-05-12T05:05:46.732Z,86.58
2023-05-12T05:06:46.720Z,90.95
2023-05-12T05:07:46.994Z,85.75
2023-05-12T05:08:46.683Z,84.67
2023-05-12T05:09:46.676Z,83.98
2023-05-12T05:10:46.660Z,89.40
2023-05-12T05:11:46.666Z,86.30
2023-05-12T05:12:46.673Z,91.39
2023-05-12T05:13:46.643Z,82.20
2023-05-12T05:14:46.693Z,94.55
2023-05-12T05:15:46.681Z,87.69
2023-05-12T05:16:46.644Z,84.56
2023-05-12T05:17:46.645Z,87.11
2023-05-12T05:18:46.868Z,82.67
2023-05-12T05:19:57.880Z,92.02
2023-05-12T05:20:54.662Z,92.43
2023-05-12T05:21:47.602Z,92.52
2023-05-12T05:22:46.995Z,92.47
2023-05-12T05:23:46.600Z,85.83
2023-05-12T05:24:46.583Z,89.84
2023-05-12T05:25:46.569Z,84.99
2023-05-12T05:26:46.565Z,89.58
2023-05-12T05:27:46.538Z,86.34
2023-05-12T05:28:46.584Z,90.16
2023-05-12T05:29:46.545Z,89.05
2023-05-12T05:30:46.541Z,89.06
2023-05-12T05:31:46.644Z,89.22
2023-05-12T05:32:46.528Z,84.04
2023-05-12T05:33:46.505Z,87.07
2023-05-12T05:34:46.480Z,88.98
2023-05-12T05:35:46.507Z,83.44
2023-05-12T05:36:46.497Z,90.00
2023-05-12T05:37:46.509Z,88.67
2023-05-12T05:38:46.496Z,86.65
2023-05-12T05:39:46.459Z,90.07
2023-05-12T05:40:53.785Z,90.88
2023-05-12T05:41:47.453Z,91.10
2023-05-12T05:42:46.486Z,91.16
2023-05-12T05:43:46.442Z,85.91
2023-05-12T05:44:46.634Z,88.06
2023-05-12T05:45:46.431Z,88.00
2023-05-12T05:46:46.524Z,92.82
2023-05-12T05:47:46.496Z,92.30
2023-05-12T05:48:46.407Z,94.73
2023-05-12T05:49:46.388Z,92.22
2023-05-12T05:50:46.436Z,105.03
2023-05-12T05:51:46.373Z,93.42
2023-05-12T05:52:46.378Z,99.36
2023-05-12T05:53:46.384Z,104.53
2023-05-12T05:54:46.374Z,104.20
2023-05-12T05:55:46.391Z,109.15
2023-05-12T05:56:46.487Z,106.98
2023-05-12T05:57:46.990Z,115.50
2023-05-12T05:58:46.554Z,114.99
2023-05-12T05:59:46.631Z,117.13
2023-05-12T06:00:46.643Z,118.88
2023-05-12T06:01:46.694Z,127.22
2023-05-12T06:02:47.213Z,135.83
2023-05-12T06:03:46.863Z,143.91
2023-05-12T06:04:46.747Z,147.45
2023-05-12T06:05:46.814Z,153.68
2023-05-12T06:06:46.824Z,152.89
2023-05-12T06:07:46.903Z,154.15
2023-05-12T06:08:46.876Z,156.74
2023-05-12T06:09:46.941Z,153.45
2023-05-12T06:10:46.975Z,154.26
2023-05-12T06:11:47.003Z,153.43
2023-05-12T06:12:47.526Z,152.79
2023-05-12T06:13:47.061Z,152.61
2023-05-12T06:14:47.096Z,150.48
2023-05-12T06:15:47.135Z,150.82
2023-05-12T06:16:47.253Z,149.39
2023-05-12T06:17:47.523Z,149.92
2023-05-12T06:18:47.332Z,149.75
2023-05-12T06:19:47.315Z,147.48
2023-05-12T06:20:47.408Z,153.92
2023-05-12T06:21:47.398Z,158.23
2023-05-12T06:22:47.522Z,148.83
2023-05-12T06:23:47.525Z,150.58
2023-05-12T06:24:47.547Z,147.98
2023-05-12T06:25:47.555Z,148.51
2023-05-12T06:26:47.657Z,147.76
2023-05-12T06:27:47.673Z,151.37
2023-05-12T06:28:47.713Z,149.81
2023-05-12T06:29:47.743Z,149.72
2023-05-12T06:30:47.805Z,152.33
2023-05-12T06:31:47.906Z,149.67
2023-05-12T06:32:47.910Z,147.77
2023-05-12T06:33:47.958Z,145.19
2023-05-12T06:34:47.990Z,148.03
2023-05-12T06:35:48.030Z,149.83
2023-05-12T06:36:48.096Z,150.20
2023-05-12T06:37:48.498Z,145.91
2023-05-12T06:38:48.201Z,148.72
2023-05-12T06:39:48.256Z,146.47
2023-05-12T06:40:48.315Z,145.26
2023-05-12T06:41:48.338Z,144.09
2023-05-12T06:42:48.401Z,149.28
2023-05-12T06:43:48.429Z,146.65
2023-05-12T06:44:48.507Z,146.58
2023-05-12T06:45:48.572Z,144.72
2023-05-12T06:46:48.632Z,143.12
2023-05-12T06:47:48.709Z,144.35
2023-05-12T06:48:48.729Z,141.40
2023-05-12T06:49:48.787Z,141.88
2023-05-12T06:50:48.811Z,146.94
2023-05-12T06:51:48.860Z,144.51
2023-05-12T06:52:49.039Z,147.62
2023-05-12T06:53:48.971Z,132.42
2023-05-12T06:54:49.000Z,130.40
2023-05-12T06:55:49.078Z,140.26
2023-05-12T06:56:49.109Z,131.29
2023-05-12T06:57:49.154Z,130.82
2023-05-12T06:58:49.788Z,134.05
2023-05-12T06:59:49.222Z,135.44
2023-05-12T07:00:49.259Z,141.78
2023-05-12T07:01:49.336Z,139.65
2023-05-12T07:02:49.565Z,146.91
2023-05-12T07:03:49.335Z,145.31
2023-05-12T07:04:49.302Z,149.18
2023-05-12T07:05:49.357Z,148.42
2023-05-12T07:06:49.357Z,145.38
2023-05-12T07:07:49.374Z,145.13
2023-05-12T07:08:50.389Z,140.03
2023-05-12T07:09:49.407Z,131.36
2023-05-12T07:10:49.451Z,123.78
2023-05-12T07:11:49.520Z,110.79
2023-05-12T07:12:50.027Z,102.87
2023-05-12T07:13:49.600Z,97.26
2023-05-12T07:14:49.693Z,87.13
2023-05-12T07:15:49.759Z,87.92
2023-05-12T07:16:49.738Z,83.95
2023-05-12T07:17:49.863Z,79.25
2023-05-12T07:18:49.751Z,76.81
2023-05-12T07:19:49.774Z,72.87
2023-05-12T07:20:49.762Z,72.92
2023-05-12T07:21:49.784Z,68.97
2023-05-12T07:22:49.754Z,66.53
2023-05-12T07:23:49.794Z,66.27
2023-05-12T07:24:49.832Z,61.51
2023-05-12T07:25:49.818Z,66.72
2023-05-12T07:26:49.864Z,64.29
2023-05-12T07:27:49.867Z,67.38
2023-05-12T07:28:49.896Z,67.46
2023-05-12T07:29:49.913Z,71.33
2023-05-12T07:30:50.182Z,76.12
2023-05-12T07:31:50.104Z,69.17
2023-05-12T07:32:50.054Z,62.50
2023-05-12T07:33:50.046Z,67.12
2023-05-12T07:34:50.071Z,59.84
2023-05-12T07:35:50.084Z,59.69
2023-05-12T07:36:50.137Z,58.59
2023-05-12T07:37:50.563Z,54.97
2023-05-12T07:38:50.234Z,58.26
2023-05-12T07:39:50.252Z,50.97
2023-05-12T07:40:50.306Z,52.73
2023-05-12T07:41:50.373Z,53.63
2023-05-12T07:42:50.414Z,50.80
2023-05-12T07:43:50.449Z,53.26
2023-05-12T07:44:50.510Z,57.97
2023-05-12T07:45:50.548Z,56.22
2023-05-12T07:46:50.622Z,53.71
2023-05-12T07:47:50.640Z,57.06
2023-05-12T07:48:50.677Z,66.53
2023-05-12T07:49:50.746Z,71.50
2023-05-12T07:50:50.730Z,70.71
2023-05-12T07:51:50.775Z,78.97
2023-05-12T07:52:50.827Z,88.61
2023-05-12T07:53:50.797Z,90.73
2023-05-12T07:54:50.844Z,94.44
2023-05-12T07:55:50.853Z,92.04
2023-05-12T07:56:50.857Z,99.60
2023-05-12T07:57:50.896Z,106.20
2023-05-12T07:58:50.870Z,103.24
2023-05-12T07:59:50.845Z,100.42
2023-05-12T08:00:50.868Z,100.39
2023-05-12T08:01:50.890Z,96.06
2023-05-12T08:02:51.213Z,105.64
2023-05-12T08:03:50.935Z,104.91
2023-05-12T08:04:50.884Z,101.80
2023-05-12T08:05:50.879Z,112.15
2023-05-12T08:06:50.891Z,115.35
2023-05-12T08:07:50.871Z,113.32
2023-05-12T08:08:51.082Z,116.73
2023-05-12T08:09:50.879Z,119.69
2023-05-12T08:10:50.858Z,115.12
2023-05-12T08:11:52.014Z,110.92
2023-05-12T08:12:50.846Z,123.20
2023-05-12T08:13:50.904Z,119.97
2023-05-12T08:14:50.869Z,118.93
2023-05-12T08:15:50.893Z,116.87
2023-05-12T08:16:50.962Z,120.39
2023-05-12T08:17:50.990Z,118.35
2023-05-12T08:18:51.143Z,123.45
2023-05-12T08:19:50.989Z,120.88
2023-05-12T08:20:51.022Z,119.77
2023-05-12T08:21:51.056Z,125.27
2023-05-12T08:22:51.118Z,123.57
2023-05-12T08:23:51.544Z,125.71
2023-05-12T08:24:51.166Z,121.22
2023-05-12T08:25:51.202Z,122.74
2023-05-12T08:26:51.228Z,125.68
2023-05-12T08:27:51.341Z,121.76
2023-05-12T08:28:51.574Z,125.30
2023-05-12T08:29:51.390Z,125.60
2023-05-12T08:30:51.420Z,126.82
2023-05-12T08:31:51.508Z,125.17
2023-05-12T08:32:51.592Z,121.66
2023-05-12T08:34:02.772Z,123.36
2023-05-12T08:34:52.851Z,123.70
2023-05-12T08:35:51.561Z,123.75
2023-05-12T08:36:51.571Z,125.72
2023-05-12T08:37:51.595Z,125.75
2023-05-12T08:38:51.568Z,126.28
2023-05-12T08:39:51.600Z,130.37
2023-05-12T08:40:51.518Z,124.79
2023-05-12T08:41:51.533Z,126.42
2023-05-12T08:42:51.532Z,133.00
2023-05-12T08:43:51.543Z,130.49
2023-05-12T08:44:51.545Z,124.78
2023-05-12T08:45:51.592Z,134.67
2023-05-12T08:46:51.685Z,117.56
2023-05-12T08:47:51.678Z,119.13
2023-05-12T08:48:51.689Z,118.64
2023-05-12T08:49:52.567Z,113.69
2023-05-12T08:50:51.809Z,118.09
2023-05-12T08:51:57.789Z,118.98
2023-05-12T08:52:52.740Z,119.58
2023-05-12T08:53:51.708Z,120.95
2023-05-12T08:54:55.869Z,123.94
2023-05-12T08:57:08.955Z,119.36
2023-05-12T08:57:51.711Z,119.52
2023-05-12T08:58:52.099Z,121.83
2023-05-12T08:59:51.661Z,126.46
2023-05-12T09:00:51.697Z,130.07
2023-05-12T09:01:51.713Z,149.70
2023-05-12T09:02:53.978Z,156.53
2023-05-12T09:03:51.917Z,150.08
2023-05-12T09:04:51.932Z,136.87
2023-05-12T09:05:51.927Z,143.63
2023-05-12T09:06:54.365Z,150.02
2023-05-12T09:07:51.954Z,179.70
2023-05-12T09:08:52.108Z,184.26
2023-05-12T09:09:51.948Z,168.27
2023-05-12T09:10:51.939Z,164.61
2023-05-12T09:11:51.932Z,164.09
2023-05-12T09:12:51.926Z,167.59
2023-05-12T09:13:52.617Z,171.60
2023-05-12T09:14:51.953Z,169.99
2023-05-12T09:15:51.943Z,171.62
2023-05-12T09:16:52.134Z,172.72
2023-05-12T09:17:51.899Z,179.61
2023-05-12T09:18:52.206Z,186.98
2023-05-12T09:19:51.870Z,190.06
2023-05-12T09:20:51.892Z,194.09
2023-05-12T09:21:51.844Z,202.35
2023-05-12T09:22:52.043Z,205.83
2023-05-12T09:23:52.103Z,207.31
2023-05-12T09:24:51.839Z,212.03
2023-05-12T09:25:51.832Z,218.25
2023-05-12T09:26:51.855Z,222.32
2023-05-12T09:27:51.852Z,224.57
2023-05-12T09:28:52.080Z,225.00
2023-05-12T09:30:51.815Z,236.57
2023-05-12T09:31:51.821Z,233.64
2023-05-12T09:32:51.833Z,240.09
2023-05-12T09:33:51.799Z,243.96
2023-05-12T09:34:51.777Z,246.06
2023-05-12T09:35:51.795Z,249.45
2023-05-12T09:36:51.755Z,250.00
2023-05-12T09:37:51.790Z,248.19
2023-05-12T09:38:52.146Z,248.68
2023-05-12T09:39:51.751Z,248.54
2023-05-12T09:40:52.742Z,249.24
2023-05-12T09:41:51.741Z,251.14
2023-05-12T09:42:51.720Z,256.41
2023-05-12T09:43:51.726Z,262.63
2023-05-12T09:44:51.717Z,253.91
2023-05-12T09:45:51.742Z,245.19
2023-05-12T09:46:51.709Z,234.85
2023-05-12T09:47:51.727Z,229.39
2023-05-12T09:48:52.150Z,234.76
2023-05-12T09:49:51.708Z,238.17
2023-05-12T09:50:51.681Z,236.67
2023-05-12T09:51:51.663Z,238.85
2023-05-12T09:52:51.663Z,242.12
2023-05-12T09:53:51.661Z,240.84
2023-05-12T09:54:51.773Z,240.86
2023-05-12T09:55:51.709Z,238.41
2023-05-12T09:56:51.776Z,239.81
2023-05-12T09:57:51.831Z,236.23
2023-05-12T09:58:51.872Z,232.21
2023-05-12T09:59:51.900Z,229.63
2023-05-12T10:01:17.663Z,230.29
2023-05-12T10:01:53.030Z,230.44
2023-05-12T10:02:51.969Z,228.16
2023-05-12T10:03:52.160Z,226.65
2023-05-12T10:04:51.957Z,224.58
2023-05-12T10:05:51.915Z,223.49
2023-05-12T10:06:51.914Z,217.52
2023-05-12T10:07:51.931Z,219.29
2023-05-12T10:08:52.148Z,216.15
2023-05-12T10:09:51.921Z,216.63
2023-05-12T10:10:51.962Z,213.25
2023-05-12T10:11:53.782Z,211.00
2023-05-12T10:12:51.967Z,210.09
2023-05-12T10:13:52.139Z,207.63
2023-05-12T10:14:51.972Z,207.37
2023-05-12T10:15:51.973Z,205.53
2023-05-12T10:16:52.094Z,205.94
2023-05-12T10:17:53.905Z,203.77
2023-05-12T10:18:52.177Z,202.59
2023-05-12T10:19:51.986Z,198.32
2023-05-12T10:20:51.981Z,189.59
2023-05-12T10:21:52.011Z,184.93
2023-05-12T10:22:51.991Z,178.31
2023-05-12T10:23:51.989Z,170.75
2023-05-12T10:24:51.979Z,165.06
2023-05-12T10:25:51.997Z,163.61
2023-05-12T10:26:52.026Z,160.30
2023-05-12T10:27:52.031Z,154.71
2023-05-12T10:28:52.148Z,153.88
2023-05-12T10:29:53.554Z,146.79
2023-05-12T10:30:52.092Z,148.94
2023-05-12T10:31:52.171Z,146.10
2023-05-12T10:32:52.181Z,144.86
2023-05-12T10:33:52.657Z,136.81
2023-05-12T10:34:52.189Z,135.97
2023-05-12T10:35:52.208Z,132.87
2023-05-12T10:36:52.263Z,127.29
2023-05-12T10:37:52.261Z,127.62
2023-05-12T10:38:52.670Z,126.85
2023-05-12T10:39:52.336Z,123.89
2023-05-12T10:40:52.360Z,123.14
2023-05-12T10:41:52.779Z,122.82
2023-05-12T10:42:52.454Z,119.64
2023-05-12T10:43:52.474Z,120.43
2023-05-12T10:44:52.522Z,115.66
2023-05-12T10:45:52.573Z,107.38
2023-05-12T10:46:52.697Z,108.54
2023-05-12T10:47:52.642Z,111.21
2023-05-12T10:48:53.147Z,117.49
2023-05-12T10:49:52.728Z,125.80
2023-05-12T10:50:52.727Z,124.19
2023-05-12T10:51:52.751Z,127.40
2023-05-12T10:52:52.771Z,121.79
2023-05-12T10:53:54.782Z,118.55
2023-05-12T10:54:52.853Z,112.64
2023-05-12T10:55:53.272Z,113.39
2023-05-12T10:56:53.168Z,110.05
2023-05-12T10:57:53.269Z,103.56
2023-05-12T10:58:53.145Z,102.79
2023-05-12T10:59:53.486Z,101.31
2023-05-12T11:00:53.735Z,95.02
2023-05-12T11:01:53.596Z,94.30
2023-05-12T11:02:54.393Z,97.41
2023-05-12T11:03:54.037Z,93.57
2023-05-12T11:04:53.652Z,90.38
2023-05-12T11:05:53.552Z,92.64
2023-05-12T11:06:54.394Z,89.72
2023-05-12T11:07:54.619Z,89.43
2023-05-12T11:08:55.055Z,86.83
2023-05-12T11:09:58.548Z,85.23
2023-05-12T11:10:54.637Z,85.34
2023-05-12T11:11:54.279Z,85.36
2023-05-12T11:12:53.574Z,82.60
2023-05-12T11:13:53.674Z,79.44
2023-05-12T11:14:53.579Z,77.74
2023-05-12T11:15:53.582Z,76.24
2023-05-12T11:16:53.537Z,71.10
2023-05-12T11:17:53.594Z,67.98
2023-05-12T11:18:53.559Z,68.00
2023-05-12T11:19:53.653Z,68.24
2023-05-12T11:20:53.491Z,68.24
2023-05-12T11:21:53.576Z,71.04
2023-05-12T11:22:53.598Z,79.61
2023-05-12T11:23:53.775Z,70.71
2023-05-12T11:24:53.829Z,74.38
2023-05-12T11:25:53.790Z,75.37
2023-05-12T11:26:53.846Z,72.40
2023-05-12T11:27:53.891Z,72.39
2023-05-12T11:28:53.954Z,77.45
2023-05-12T11:29:54.185Z,77.53
2023-05-12T11:30:55.472Z,77.46
2023-05-12T11:31:54.128Z,80.89
2023-05-12T11:32:54.208Z,80.21
2023-05-12T11:34:08.307Z,86.59
2023-05-12T11:34:55.255Z,86.58
2023-05-12T11:35:54.203Z,81.21
2023-05-12T11:36:54.202Z,84.03
2023-05-12T11:37:54.209Z,80.25
2023-05-12T11:38:54.178Z,79.37
2023-05-12T11:39:54.684Z,78.00
2023-05-12T11:40:54.217Z,78.56
2023-05-12T11:42:02.060Z,70.55
2023-05-12T11:42:55.157Z,70.96
2023-05-12T11:43:54.182Z,72.59
2023-05-12T11:44:54.148Z,65.52
2023-05-12T11:45:54.232Z,62.62
2023-05-12T11:46:54.305Z,62.63
2023-05-12T11:47:54.152Z,68.35
2023-05-12T11:48:54.132Z,63.70
2023-05-12T11:49:54.102Z,50.20
2023-05-12T11:50:54.126Z,44.20
2023-05-12T11:51:54.076Z,45.63
2023-05-12T11:52:54.102Z,54.07
2023-05-12T11:53:54.076Z,53.27
2023-05-12T11:54:54.189Z,51.95
2023-05-12T11:55:54.101Z,48.79
2023-05-12T11:56:54.049Z,48.03
2023-05-12T11:57:54.069Z,49.12
2023-05-12T11:58:54.066Z,56.34
2023-05-12T11:59:54.105Z,59.97
2023-05-12T12:00:54.123Z,52.68
2023-05-12T12:01:54.190Z,53.32
2023-05-12T12:02:54.343Z,57.07
2023-05-12T12:03:54.278Z,53.47
2023-05-12T12:04:54.251Z,56.70
2023-05-12T12:05:54.275Z,57.77
2023-05-12T12:06:54.334Z,53.77
2023-05-12T12:07:54.411Z,57.93
2023-05-12T12:08:54.429Z,59.90
2023-05-12T12:09:54.503Z,56.11
2023-05-12T12:10:54.539Z,54.01
2023-05-12T12:11:54.635Z,58.72
2023-05-12T12:12:54.685Z,60.12
2023-05-12T12:13:54.757Z,56.49
2023-05-12T12:14:54.830Z,57.08
2023-05-12T12:15:54.917Z,60.09
2023-05-12T12:16:54.953Z,63.03
2023-05-12T12:17:55.052Z,59.46
2023-05-12T12:18:55.238Z,60.06
2023-05-12T12:19:55.137Z,65.67
2023-05-12T12:20:55.168Z,57.08
2023-05-12T12:21:55.238Z,57.08
2023-05-12T12:22:55.286Z,60.52
2023-05-12T12:23:55.351Z,58.12
2023-05-12T12:24:55.715Z,59.91
2023-05-12T12:25:55.514Z,59.73
2023-05-12T12:26:55.556Z,65.27
2023-05-12T12:27:55.606Z,56.62
2023-05-12T12:28:55.681Z,64.60
2023-05-12T12:29:56.231Z,60.24
2023-05-12T12:30:55.825Z,69.33
2023-05-12T12:31:55.871Z,66.21
2023-05-12T12:32:55.982Z,60.58
2023-05-12T12:33:55.993Z,63.23
2023-05-12T12:34:56.169Z,63.45
2023-05-12T12:35:56.097Z,61.44
2023-05-12T12:36:56.179Z,60.96
2023-05-12T12:37:56.216Z,65.43
2023-05-12T12:38:56.322Z,62.38
2023-05-12T12:39:56.356Z,62.30
2023-05-12T12:40:56.395Z,64.26
2023-05-12T12:41:56.483Z,60.54
2023-05-12T12:42:56.527Z,66.40
2023-05-12T12:43:56.585Z,66.06
2023-05-12T12:44:56.648Z,61.87
2023-05-12T12:45:56.708Z,63.15
2023-05-12T12:46:56.806Z,66.37
2023-05-12T12:47:56.849Z,64.16